sensor_id;sensor_type;location;lat;lon;timestamp;P1;durP1;ratioP1;P2;durP2;ratioP2
21107;SDS011;10712;52.944;9.098;2023-10-19T00:00:56;14.70;;;9.80;;
21107;SDS011;10712;52.944;9.098;2023-10-19T00:03:23;15.13;;;9.60;;
21107;SDS011;10712;52.944;9.098;2023-10-19T00:05:49;13.68;;;10.55;;
21107;SDS011;10712;52.944;9.098;2023-10-19T00:08:15;14.52;;;10.00;;
21107;SDS011;10712;52.944;9.098;2023-10-19T00:10:49;15.75;;;11.00;;
21107;SDS011;10712;52.944;9.098;2023-10-19T00:13:32;14.10;;;11.02;;
21107;SDS011;10712;52.944;9.098;2023-10-19T00:16:01;12.13;;;10.20;;
21107;SDS011;10712;52.944;9.098;2023-10-19T00:18:32;13.52;;;9.70;;
21107;SDS011;10712;52.944;9.098;2023-10-19T00:21:00;12.50;;;9.98;;
21107;SDS011;10712;52.944;9.098;2023-10-19T00:23:41;15.83;;;10.67;;
21107;SDS011;10712;52.944;9.098;2023-10-19T00:26:07;12.98;;;11.20;;
21107;SDS011;10712;52.944;9.098;2023-10-19T00:28:44;11.98;;;10.50;;
21107;SDS011;10712;52.944;9.098;2023-10-19T00:31:12;13.95;;;10.65;;
21107;SDS011;10712;52.944;9.098;2023-10-19T00:33:38;12.85;;;10.25;;
21107;SDS011;10712;52.944;9.098;2023-10-19T00:36:05;12.80;;;10.48;;
21107;SDS011;10712;52.944;9.098;2023-10-19T00:38:36;13.10;;;9.77;;
21107;SDS011;10712;52.944;9.098;2023-10-19T00:41:07;12.68;;;10.77;;
21107;SDS011;10712;52.944;9.098;2023-10-19T00:43:45;12.85;;;9.98;;
21107;SDS011;10712;52.944;9.098;2023-10-19T00:46:15;13.25;;;10.00;;
21107;SDS011;10712;52.944;9.098;2023-10-19T00:51:29;14.35;;;10.77;;
21107;SDS011;10712;52.944;9.098;2023-10-19T00:54:05;14.15;;;11.52;;
21107;SDS011;10712;52.944;9.098;2023-10-19T00:56:59;14.55;;;10.85;;
21107;SDS011;10712;52.944;9.098;2023-10-19T00:59:37;13.73;;;11.60;;
21107;SDS011;10712;52.944;9.098;2023-10-19T01:02:21;12.77;;;10.55;;
21107;SDS011;10712;52.944;9.098;2023-10-19T01:04:54;12.00;;;10.70;;
21107;SDS011;10712;52.944;9.098;2023-10-19T01:07:32;15.30;;;10.85;;
21107;SDS011;10712;52.944;9.098;2023-10-19T01:10:03;13.27;;;11.75;;
21107;SDS011;10712;52.944;9.098;2023-10-19T01:12:33;16.55;;;12.25;;
21107;SDS011;10712;52.944;9.098;2023-10-19T01:18:02;15.48;;;12.40;;
21107;SDS011;10712;52.944;9.098;2023-10-19T01:20:29;16.02;;;12.20;;
21107;SDS011;10712;52.944;9.098;2023-10-19T01:25:32;14.10;;;11.90;;
21107;SDS011;10712;52.944;9.098;2023-10-19T01:28:15;14.88;;;11.93;;
21107;SDS011;10712;52.944;9.098;2023-10-19T01:30:42;14.90;;;12.13;;
21107;SDS011;10712;52.944;9.098;2023-10-19T01:33:09;17.90;;;12.75;;
21107;SDS011;10712;52.944;9.098;2023-10-19T01:35:41;16.83;;;12.73;;
21107;SDS011;10712;52.944;9.098;2023-10-19T01:38:29;16.38;;;12.70;;
21107;SDS011;10712;52.944;9.098;2023-10-19T01:40:59;18.70;;;12.60;;
21107;SDS011;10712;52.944;9.098;2023-10-19T01:43:53;18.98;;;13.68;;
21107;SDS011;10712;52.944;9.098;2023-10-19T01:46:20;18.83;;;12.73;;
21107;SDS011;10712;52.944;9.098;2023-10-19T01:48:54;16.27;;;13.40;;
21107;SDS011;10712;52.944;9.098;2023-10-19T01:51:21;18.77;;;13.70;;
21107;SDS011;10712;52.944;9.098;2023-10-19T01:53:52;16.55;;;13.35;;
21107;SDS011;10712;52.944;9.098;2023-10-19T01:56:25;14.93;;;13.07;;
21107;SDS011;10712;52.944;9.098;2023-10-19T01:58:52;16.55;;;13.52;;
21107;SDS011;10712;52.944;9.098;2023-10-19T02:01:19;16.85;;;13.88;;
21107;SDS011;10712;52.944;9.098;2023-10-19T02:03:46;18.63;;;14.57;;
21107;SDS011;10712;52.944;9.098;2023-10-19T02:06:20;16.10;;;14.25;;
21107;SDS011;10712;52.944;9.098;2023-10-19T02:08:58;17.50;;;13.77;;
21107;SDS011;10712;52.944;9.098;2023-10-19T02:11:34;20.40;;;14.90;;
21107;SDS011;10712;52.944;9.098;2023-10-19T02:14:06;19.48;;;15.27;;
21107;SDS011;10712;52.944;9.098;2023-10-19T02:16:41;18.77;;;14.93;;
21107;SDS011;10712;52.944;9.098;2023-10-19T02:19:09;19.40;;;13.75;;
21107;SDS011;10712;52.944;9.098;2023-10-19T02:21:35;17.67;;;14.80;;
21107;SDS011;10712;52.944;9.098;2023-10-19T02:24:10;18.65;;;14.82;;
21107;SDS011;10712;52.944;9.098;2023-10-19T02:26:39;21.90;;;14.90;;
21107;SDS011;10712;52.944;9.098;2023-10-19T02:29:06;21.15;;;15.63;;
21107;SDS011;10712;52.944;9.098;2023-10-19T02:31:36;22.70;;;15.80;;
21107;SDS011;10712;52.944;9.098;2023-10-19T02:34:06;18.83;;;15.55;;
21107;SDS011;10712;52.944;9.098;2023-10-19T02:36:35;21.70;;;16.27;;
21107;SDS011;10712;52.944;9.098;2023-10-19T02:39:07;20.70;;;15.43;;
21107;SDS011;10712;52.944;9.098;2023-10-19T02:44:13;20.85;;;15.23;;
21107;SDS011;10712;52.944;9.098;2023-10-19T02:46:47;18.77;;;15.23;;
21107;SDS011;10712;52.944;9.098;2023-10-19T02:49:17;20.75;;;15.65;;
21107;SDS011;10712;52.944;9.098;2023-10-19T02:51:46;20.42;;;15.50;;
21107;SDS011;10712;52.944;9.098;2023-10-19T02:54:15;21.52;;;16.17;;
21107;SDS011;10712;52.944;9.098;2023-10-19T02:56:50;17.80;;;15.45;;
21107;SDS011;10712;52.944;9.098;2023-10-19T02:59:22;20.98;;;15.63;;
21107;SDS011;10712;52.944;9.098;2023-10-19T03:01:51;18.80;;;16.40;;
21107;SDS011;10712;52.944;9.098;2023-10-19T03:04:27;22.40;;;16.58;;
21107;SDS011;10712;52.944;9.098;2023-10-19T03:06:54;23.77;;;16.80;;
21107;SDS011;10712;52.944;9.098;2023-10-19T03:09:23;18.13;;;14.60;;
21107;SDS011;10712;52.944;9.098;2023-10-19T03:11:54;21.23;;;15.48;;
21107;SDS011;10712;52.944;9.098;2023-10-19T03:14:35;18.73;;;15.45;;
21107;SDS011;10712;52.944;9.098;2023-10-19T03:17:02;19.08;;;16.08;;
21107;SDS011;10712;52.944;9.098;2023-10-19T03:19:29;23.35;;;16.48;;
21107;SDS011;10712;52.944;9.098;2023-10-19T03:21:55;21.13;;;16.27;;
21107;SDS011;10712;52.944;9.098;2023-10-19T03:24:26;22.00;;;16.85;;
21107;SDS011;10712;52.944;9.098;2023-10-19T03:27:12;21.05;;;16.08;;
21107;SDS011;10712;52.944;9.098;2023-10-19T03:29:49;19.98;;;16.55;;
21107;SDS011;10712;52.944;9.098;2023-10-19T03:32:21;24.77;;;17.92;;
21107;SDS011;10712;52.944;9.098;2023-10-19T03:34:51;22.75;;;18.08;;
21107;SDS011;10712;52.944;9.098;2023-10-19T03:37:23;23.48;;;16.60;;
21107;SDS011;10712;52.944;9.098;2023-10-19T03:39:54;22.02;;;16.20;;
21107;SDS011;10712;52.944;9.098;2023-10-19T03:42:24;21.73;;;16.85;;
21107;SDS011;10712;52.944;9.098;2023-10-19T03:44:57;18.85;;;14.75;;
21107;SDS011;10712;52.944;9.098;2023-10-19T03:47:25;20.70;;;16.75;;
21107;SDS011;10712;52.944;9.098;2023-10-19T03:49:53;21.30;;;17.30;;
21107;SDS011;10712;52.944;9.098;2023-10-19T03:52:19;18.70;;;16.35;;
21107;SDS011;10712;52.944;9.098;2023-10-19T03:54:45;24.23;;;17.67;;
21107;SDS011;10712;52.944;9.098;2023-10-19T03:57:14;22.00;;;16.00;;
21107;SDS011;10712;52.944;9.098;2023-10-19T03:59:54;26.33;;;18.40;;
21107;SDS011;10712;52.944;9.098;2023-10-19T04:02:24;19.20;;;15.73;;
21107;SDS011;10712;52.944;9.098;2023-10-19T04:04:52;20.50;;;16.88;;
21107;SDS011;10712;52.944;9.098;2023-10-19T04:07:20;20.10;;;16.92;;
21107;SDS011;10712;52.944;9.098;2023-10-19T04:09:49;21.52;;;17.48;;
21107;SDS011;10712;52.944;9.098;2023-10-19T04:12:32;23.08;;;16.88;;
21107;SDS011;10712;52.944;9.098;2023-10-19T04:15:03;23.17;;;18.08;;
21107;SDS011;10712;52.944;9.098;2023-10-19T04:17:40;21.80;;;18.40;;
21107;SDS011;10712;52.944;9.098;2023-10-19T04:20:07;19.98;;;16.52;;
21107;SDS011;10712;52.944;9.098;2023-10-19T04:22:44;21.88;;;17.55;;
21107;SDS011;10712;52.944;9.098;2023-10-19T04:25:14;20.80;;;17.58;;
21107;SDS011;10712;52.944;9.098;2023-10-19T04:27:43;23.10;;;17.65;;
21107;SDS011;10712;52.944;9.098;2023-10-19T04:30:14;22.20;;;16.48;;
21107;SDS011;10712;52.944;9.098;2023-10-19T04:32:41;19.80;;;16.80;;
21107;SDS011;10712;52.944;9.098;2023-10-19T04:35:11;20.65;;;16.88;;
21107;SDS011;10712;52.944;9.098;2023-10-19T04:37:52;28.27;;;19.08;;
21107;SDS011;10712;52.944;9.098;2023-10-19T04:40:19;22.45;;;18.83;;
21107;SDS011;10712;52.944;9.098;2023-10-19T04:42:46;24.85;;;19.55;;
21107;SDS011;10712;52.944;9.098;2023-10-19T04:45:13;24.58;;;18.98;;
21107;SDS011;10712;52.944;9.098;2023-10-19T04:47:39;23.50;;;17.92;;
21107;SDS011;10712;52.944;9.098;2023-10-19T04:50:05;25.88;;;18.10;;
21107;SDS011;10712;52.944;9.098;2023-10-19T04:52:33;25.45;;;19.63;;
21107;SDS011;10712;52.944;9.098;2023-10-19T04:54:59;24.85;;;20.00;;
21107;SDS011;10712;52.944;9.098;2023-10-19T04:57:26;21.48;;;18.50;;
21107;SDS011;10712;52.944;9.098;2023-10-19T04:59:52;22.13;;;18.63;;
21107;SDS011;10712;52.944;9.098;2023-10-19T05:02:17;23.10;;;18.38;;
21107;SDS011;10712;52.944;9.098;2023-10-19T05:04:43;25.35;;;18.77;;
21107;SDS011;10712;52.944;9.098;2023-10-19T05:07:12;24.77;;;18.63;;
21107;SDS011;10712;52.944;9.098;2023-10-19T05:09:42;20.27;;;17.23;;
21107;SDS011;10712;52.944;9.098;2023-10-19T05:12:09;21.58;;;18.40;;
21107;SDS011;10712;52.944;9.098;2023-10-19T05:14:36;24.48;;;19.80;;
21107;SDS011;10712;52.944;9.098;2023-10-19T05:17:04;21.42;;;17.90;;
21107;SDS011;10712;52.944;9.098;2023-10-19T05:19:31;20.48;;;16.90;;
21107;SDS011;10712;52.944;9.098;2023-10-19T05:21:57;18.92;;;15.52;;
21107;SDS011;10712;52.944;9.098;2023-10-19T05:24:25;20.10;;;15.48;;
21107;SDS011;10712;52.944;9.098;2023-10-19T05:26:52;18.88;;;15.27;;
21107;SDS011;10712;52.944;9.098;2023-10-19T05:29:19;17.20;;;15.23;;
21107;SDS011;10712;52.944;9.098;2023-10-19T05:31:45;20.85;;;15.30;;
21107;SDS011;10712;52.944;9.098;2023-10-19T05:34:12;21.38;;;16.60;;
21107;SDS011;10712;52.944;9.098;2023-10-19T05:36:37;18.92;;;16.33;;
21107;SDS011;10712;52.944;9.098;2023-10-19T05:39:04;20.88;;;16.35;;
21107;SDS011;10712;52.944;9.098;2023-10-19T05:41:33;17.85;;;15.48;;
21107;SDS011;10712;52.944;9.098;2023-10-19T05:44:03;16.83;;;14.90;;
21107;SDS011;10712;52.944;9.098;2023-10-19T05:46:29;17.77;;;15.05;;
21107;SDS011;10712;52.944;9.098;2023-10-19T05:48:56;18.40;;;15.05;;
21107;SDS011;10712;52.944;9.098;2023-10-19T05:51:23;17.13;;;14.60;;
21107;SDS011;10712;52.944;9.098;2023-10-19T05:53:49;14.50;;;12.85;;
21107;SDS011;10712;52.944;9.098;2023-10-19T05:56:16;16.13;;;13.65;;
21107;SDS011;10712;52.944;9.098;2023-10-19T05:58:42;17.75;;;14.13;;
21107;SDS011;10712;52.944;9.098;2023-10-19T06:01:09;15.63;;;13.88;;
21107;SDS011;10712;52.944;9.098;2023-10-19T06:03:35;17.60;;;14.35;;
21107;SDS011;10712;52.944;9.098;2023-10-19T06:06:01;14.73;;;13.23;;
21107;SDS011;10712;52.944;9.098;2023-10-19T06:08:27;14.73;;;12.90;;
21107;SDS011;10712;52.944;9.098;2023-10-19T06:10:54;19.45;;;14.02;;
21107;SDS011;10712;52.944;9.098;2023-10-19T06:13:20;16.33;;;14.05;;
21107;SDS011;10712;52.944;9.098;2023-10-19T06:15:49;16.73;;;13.60;;
21107;SDS011;10712;52.944;9.098;2023-10-19T06:18:16;18.27;;;13.85;;
21107;SDS011;10712;52.944;9.098;2023-10-19T06:20:45;18.85;;;14.68;;
21107;SDS011;10712;52.944;9.098;2023-10-19T06:23:11;17.40;;;14.98;;
21107;SDS011;10712;52.944;9.098;2023-10-19T06:25:37;15.63;;;13.05;;
21107;SDS011;10712;52.944;9.098;2023-10-19T06:28:04;16.23;;;13.88;;
21107;SDS011;10712;52.944;9.098;2023-10-19T06:30:33;14.70;;;13.15;;
21107;SDS011;10712;52.944;9.098;2023-10-19T06:32:59;18.27;;;13.77;;
21107;SDS011;10712;52.944;9.098;2023-10-19T06:35:26;17.38;;;15.30;;
21107;SDS011;10712;52.944;9.098;2023-10-19T06:37:57;42.55;;;32.08;;
21107;SDS011;10712;52.944;9.098;2023-10-19T06:40:25;20.63;;;17.65;;
21107;SDS011;10712;52.944;9.098;2023-10-19T06:42:54;17.65;;;15.13;;
21107;SDS011;10712;52.944;9.098;2023-10-19T06:45:22;16.40;;;14.70;;
21107;SDS011;10712;52.944;9.098;2023-10-19T06:47:49;16.23;;;13.60;;
21107;SDS011;10712;52.944;9.098;2023-10-19T06:50:16;15.80;;;12.98;;
21107;SDS011;10712;52.944;9.098;2023-10-19T06:52:50;15.98;;;12.82;;
21107;SDS011;10712;52.944;9.098;2023-10-19T06:55:17;13.55;;;11.82;;
21107;SDS011;10712;52.944;9.098;2023-10-19T06:57:48;16.52;;;13.05;;
21107;SDS011;10712;52.944;9.098;2023-10-19T07:00:17;14.75;;;12.80;;
21107;SDS011;10712;52.944;9.098;2023-10-19T07:02:46;13.75;;;11.80;;
21107;SDS011;10712;52.944;9.098;2023-10-19T07:05:14;13.90;;;11.80;;
21107;SDS011;10712;52.944;9.098;2023-10-19T07:07:46;13.27;;;11.85;;
21107;SDS011;10712;52.944;9.098;2023-10-19T07:10:12;14.23;;;12.80;;
21107;SDS011;10712;52.944;9.098;2023-10-19T07:12:39;12.15;;;10.88;;
21107;SDS011;10712;52.944;9.098;2023-10-19T07:15:08;13.00;;;10.85;;
21107;SDS011;10712;52.944;9.098;2023-10-19T07:17:39;11.38;;;9.70;;
21107;SDS011;10712;52.944;9.098;2023-10-19T07:20:09;11.55;;;10.15;;
21107;SDS011;10712;52.944;9.098;2023-10-19T07:22:57;26.95;;;23.13;;
21107;SDS011;10712;52.944;9.098;2023-10-19T07:25:28;30.83;;;24.67;;
21107;SDS011;10712;52.944;9.098;2023-10-19T07:27:56;13.02;;;11.63;;
21107;SDS011;10712;52.944;9.098;2023-10-19T07:30:24;11.02;;;9.93;;
21107;SDS011;10712;52.944;9.098;2023-10-19T07:32:53;12.75;;;9.77;;
21107;SDS011;10712;52.944;9.098;2023-10-19T07:35:21;11.88;;;9.93;;
21107;SDS011;10712;52.944;9.098;2023-10-19T07:37:47;13.57;;;10.50;;
21107;SDS011;10712;52.944;9.098;2023-10-19T07:40:15;16.67;;;14.13;;
21107;SDS011;10712;52.944;9.098;2023-10-19T07:42:43;14.50;;;12.07;;
21107;SDS011;10712;52.944;9.098;2023-10-19T07:45:12;14.45;;;11.10;;
21107;SDS011;10712;52.944;9.098;2023-10-19T07:47:38;11.85;;;10.55;;
21107;SDS011;10712;52.944;9.098;2023-10-19T07:50:08;11.75;;;10.55;;
21107;SDS011;10712;52.944;9.098;2023-10-19T07:52:44;10.18;;;9.10;;
21107;SDS011;10712;52.944;9.098;2023-10-19T07:55:13;11.48;;;10.18;;
21107;SDS011;10712;52.944;9.098;2023-10-19T07:57:41;12.07;;;10.55;;
21107;SDS011;10712;52.944;9.098;2023-10-19T08:00:08;10.82;;;9.05;;
21107;SDS011;10712;52.944;9.098;2023-10-19T08:02:36;10.75;;;9.40;;
21107;SDS011;10712;52.944;9.098;2023-10-19T08:05:11;11.98;;;9.60;;
21107;SDS011;10712;52.944;9.098;2023-10-19T08:07:38;10.15;;;8.63;;
21107;SDS011;10712;52.944;9.098;2023-10-19T08:10:08;12.63;;;9.95;;
21107;SDS011;10712;52.944;9.098;2023-10-19T08:12:39;9.63;;;8.63;;
21107;SDS011;10712;52.944;9.098;2023-10-19T08:15:07;11.13;;;9.90;;
21107;SDS011;10712;52.944;9.098;2023-10-19T08:17:40;11.60;;;10.40;;
21107;SDS011;10712;52.944;9.098;2023-10-19T08:20:08;10.85;;;9.45;;
21107;SDS011;10712;52.944;9.098;2023-10-19T08:22:48;14.50;;;10.95;;
21107;SDS011;10712;52.944;9.098;2023-10-19T08:25:18;17.08;;;11.45;;
21107;SDS011;10712;52.944;9.098;2023-10-19T08:27:44;11.70;;;10.32;;
21107;SDS011;10712;52.944;9.098;2023-10-19T08:30:14;16.45;;;10.70;;
21107;SDS011;10712;52.944;9.098;2023-10-19T08:32:43;10.75;;;9.55;;
21107;SDS011;10712;52.944;9.098;2023-10-19T08:35:13;9.82;;;8.60;;
21107;SDS011;10712;52.944;9.098;2023-10-19T08:37:49;9.77;;;8.75;;
21107;SDS011;10712;52.944;9.098;2023-10-19T08:40:19;8.50;;;7.43;;
21107;SDS011;10712;52.944;9.098;2023-10-19T08:42:46;9.55;;;8.65;;
21107;SDS011;10712;52.944;9.098;2023-10-19T08:45:14;9.02;;;8.10;;
21107;SDS011;10712;52.944;9.098;2023-10-19T08:47:58;8.75;;;7.95;;
21107;SDS011;10712;52.944;9.098;2023-10-19T08:50:27;9.10;;;8.20;;
21107;SDS011;10712;52.944;9.098;2023-10-19T08:52:56;12.27;;;10.18;;
21107;SDS011;10712;52.944;9.098;2023-10-19T08:55:30;10.13;;;9.05;;
21107;SDS011;10712;52.944;9.098;2023-10-19T08:57:59;8.75;;;7.93;;
21107;SDS011;10712;52.944;9.098;2023-10-19T09:00:25;8.15;;;7.35;;
21107;SDS011;10712;52.944;9.098;2023-10-19T09:02:52;7.80;;;7.00;;
21107;SDS011;10712;52.944;9.098;2023-10-19T09:05:21;6.45;;;5.82;;
21107;SDS011;10712;52.944;9.098;2023-10-19T09:07:54;6.53;;;5.80;;
21107;SDS011;10712;52.944;9.098;2023-10-19T09:10:21;7.72;;;6.53;;
21107;SDS011;10712;52.944;9.098;2023-10-19T09:15:27;13.73;;;11.02;;
21107;SDS011;10712;52.944;9.098;2023-10-19T09:18:13;9.25;;;7.60;;
21107;SDS011;10712;52.944;9.098;2023-10-19T09:20:42;7.45;;;6.70;;
21107;SDS011;10712;52.944;9.098;2023-10-19T09:23:26;6.63;;;6.00;;
21107;SDS011;10712;52.944;9.098;2023-10-19T09:25:56;7.50;;;6.68;;
21107;SDS011;10712;52.944;9.098;2023-10-19T09:28:23;6.70;;;5.63;;
21107;SDS011;10712;52.944;9.098;2023-10-19T09:30:50;7.35;;;6.65;;
21107;SDS011;10712;52.944;9.098;2023-10-19T09:33:17;7.38;;;6.22;;
21107;SDS011;10712;52.944;9.098;2023-10-19T09:35:45;7.43;;;6.07;;
21107;SDS011;10712;52.944;9.098;2023-10-19T09:38:18;6.80;;;6.20;;
21107;SDS011;10712;52.944;9.098;2023-10-19T09:40:49;5.63;;;5.13;;
21107;SDS011;10712;52.944;9.098;2023-10-19T09:43:41;7.13;;;6.43;;
21107;SDS011;10712;52.944;9.098;2023-10-19T09:46:09;6.50;;;5.80;;
21107;SDS011;10712;52.944;9.098;2023-10-19T09:48:41;6.97;;;6.32;;
21107;SDS011;10712;52.944;9.098;2023-10-19T09:51:11;6.35;;;5.75;;
21107;SDS011;10712;52.944;9.098;2023-10-19T09:53:38;5.82;;;5.32;;
21107;SDS011;10712;52.944;9.098;2023-10-19T09:56:06;5.80;;;5.03;;
21107;SDS011;10712;52.944;9.098;2023-10-19T09:58:41;5.40;;;4.88;;
21107;SDS011;10712;52.944;9.098;2023-10-19T10:01:13;5.40;;;4.90;;
21107;SDS011;10712;52.944;9.098;2023-10-19T10:06:17;5.43;;;4.90;;
21107;SDS011;10712;52.944;9.098;2023-10-19T10:08:54;5.38;;;4.88;;
21107;SDS011;10712;52.944;9.098;2023-10-19T10:11:24;4.70;;;4.30;;
21107;SDS011;10712;52.944;9.098;2023-10-19T10:13:52;4.88;;;4.38;;
21107;SDS011;10712;52.944;9.098;2023-10-19T10:16:23;4.63;;;4.22;;
21107;SDS011;10712;52.944;9.098;2023-10-19T10:18:55;4.82;;;4.43;;
21107;SDS011;10712;52.944;9.098;2023-10-19T10:21:27;4.85;;;4.22;;
21107;SDS011;10712;52.944;9.098;2023-10-19T10:23:58;5.10;;;4.65;;
21107;SDS011;10712;52.944;9.098;2023-10-19T10:26:28;5.28;;;4.43;;
21107;SDS011;10712;52.944;9.098;2023-10-19T10:29:09;4.85;;;4.45;;
21107;SDS011;10712;52.944;9.098;2023-10-19T10:31:48;4.78;;;4.38;;
21107;SDS011;10712;52.944;9.098;2023-10-19T10:37:10;15.82;;;13.95;;
21107;SDS011;10712;52.944;9.098;2023-10-19T10:39:39;6.43;;;5.63;;
21107;SDS011;10712;52.944;9.098;2023-10-19T10:42:08;5.60;;;5.10;;
21107;SDS011;10712;52.944;9.098;2023-10-19T10:44:35;5.47;;;4.97;;
21107;SDS011;10712;52.944;9.098;2023-10-19T10:47:15;4.47;;;4.07;;
21107;SDS011;10712;52.944;9.098;2023-10-19T10:49:56;4.75;;;4.30;;
21107;SDS011;10712;52.944;9.098;2023-10-19T10:52:35;5.22;;;4.72;;
21107;SDS011;10712;52.944;9.098;2023-10-19T10:55:11;4.95;;;4.40;;
21107;SDS011;10712;52.944;9.098;2023-10-19T10:57:42;4.70;;;4.30;;
21107;SDS011;10712;52.944;9.098;2023-10-19T11:00:13;4.70;;;4.30;;
21107;SDS011;10712;52.944;9.098;2023-10-19T11:02:41;4.53;;;4.13;;
21107;SDS011;10712;52.944;9.098;2023-10-19T11:05:08;4.63;;;4.22;;
21107;SDS011;10712;52.944;9.098;2023-10-19T11:07:40;4.63;;;4.20;;
21107;SDS011;10712;52.944;9.098;2023-10-19T11:10:27;4.20;;;3.88;;
21107;SDS011;10712;52.944;9.098;2023-10-19T11:13:01;8.70;;;6.63;;
21107;SDS011;10712;52.944;9.098;2023-10-19T11:15:31;5.85;;;4.93;;
21107;SDS011;10712;52.944;9.098;2023-10-19T11:18:02;5.07;;;4.20;;
21107;SDS011;10712;52.944;9.098;2023-10-19T11:20:29;3.92;;;3.63;;
21107;SDS011;10712;52.944;9.098;2023-10-19T11:22:56;5.18;;;4.68;;
21107;SDS011;10712;52.944;9.098;2023-10-19T11:25:26;4.70;;;4.30;;
21107;SDS011;10712;52.944;9.098;2023-10-19T11:27:57;9.30;;;4.40;;
21107;SDS011;10712;52.944;9.098;2023-10-19T11:30:27;4.05;;;3.67;;
21107;SDS011;10712;52.944;9.098;2023-10-19T11:32:55;4.55;;;4.15;;
21107;SDS011;10712;52.944;9.098;2023-10-19T11:35:27;4.00;;;3.70;;
21107;SDS011;10712;52.944;9.098;2023-10-19T11:37:59;4.45;;;4.05;;
21107;SDS011;10712;52.944;9.098;2023-10-19T11:40:27;4.07;;;3.40;;
21107;SDS011;10712;52.944;9.098;2023-10-19T11:42:53;4.20;;;3.80;;
21107;SDS011;10712;52.944;9.098;2023-10-19T11:45:25;4.50;;;4.10;;
21107;SDS011;10712;52.944;9.098;2023-10-19T11:47:52;5.15;;;3.85;;
21107;SDS011;10712;52.944;9.098;2023-10-19T11:50:18;4.85;;;4.45;;
21107;SDS011;10712;52.944;9.098;2023-10-19T11:52:44;14.18;;;11.60;;
21107;SDS011;10712;52.944;9.098;2023-10-19T11:55:12;14.25;;;11.65;;
21107;SDS011;10712;52.944;9.098;2023-10-19T11:57:39;7.50;;;6.72;;
21107;SDS011;10712;52.944;9.098;2023-10-19T12:00:06;6.63;;;5.97;;
21107;SDS011;10712;52.944;9.098;2023-10-19T12:02:38;5.57;;;5.07;;
21107;SDS011;10712;52.944;9.098;2023-10-19T12:05:08;5.20;;;4.68;;
21107;SDS011;10712;52.944;9.098;2023-10-19T12:07:38;5.57;;;5.05;;
21107;SDS011;10712;52.944;9.098;2023-10-19T12:10:08;5.70;;;5.20;;
21107;SDS011;10712;52.944;9.098;2023-10-19T12:12:36;6.73;;;6.13;;
21107;SDS011;10712;52.944;9.098;2023-10-19T12:15:03;5.32;;;4.72;;
21107;SDS011;10712;52.944;9.098;2023-10-19T12:17:31;5.47;;;4.95;;
21107;SDS011;10712;52.944;9.098;2023-10-19T12:19:57;6.32;;;5.72;;
21107;SDS011;10712;52.944;9.098;2023-10-19T12:22:23;8.88;;;7.30;;
21107;SDS011;10712;52.944;9.098;2023-10-19T12:24:53;6.18;;;5.55;;
21107;SDS011;10712;52.944;9.098;2023-10-19T12:27:21;6.53;;;5.85;;
21107;SDS011;10712;52.944;9.098;2023-10-19T12:29:49;6.50;;;5.90;;
21107;SDS011;10712;52.944;9.098;2023-10-19T12:32:17;8.05;;;7.05;;
21107;SDS011;10712;52.944;9.098;2023-10-19T12:34:43;7.25;;;6.55;;
21107;SDS011;10712;52.944;9.098;2023-10-19T12:37:10;8.23;;;6.15;;
21107;SDS011;10712;52.944;9.098;2023-10-19T12:39:38;6.22;;;5.72;;
21107;SDS011;10712;52.944;9.098;2023-10-19T12:42:12;6.63;;;5.78;;
21107;SDS011;10712;52.944;9.098;2023-10-19T12:44:39;8.15;;;6.40;;
21107;SDS011;10712;52.944;9.098;2023-10-19T12:47:09;6.82;;;5.97;;
21107;SDS011;10712;52.944;9.098;2023-10-19T12:49:39;7.55;;;6.55;;
21107;SDS011;10712;52.944;9.098;2023-10-19T12:52:06;7.55;;;6.78;;
21107;SDS011;10712;52.944;9.098;2023-10-19T12:54:33;6.70;;;6.00;;
21107;SDS011;10712;52.944;9.098;2023-10-19T12:57:02;6.65;;;6.05;;
21107;SDS011;10712;52.944;9.098;2023-10-19T12:59:35;6.53;;;5.88;;
21107;SDS011;10712;52.944;9.098;2023-10-19T13:02:07;7.35;;;6.60;;
21107;SDS011;10712;52.944;9.098;2023-10-19T13:04:33;6.47;;;5.88;;
21107;SDS011;10712;52.944;9.098;2023-10-19T13:07:00;6.82;;;6.13;;
21107;SDS011;10712;52.944;9.098;2023-10-19T13:09:27;6.75;;;6.05;;
21107;SDS011;10712;52.944;9.098;2023-10-19T13:12:00;7.45;;;6.47;;
21107;SDS011;10712;52.944;9.098;2023-10-19T13:14:26;7.30;;;6.60;;
21107;SDS011;10712;52.944;9.098;2023-10-19T13:16:52;6.57;;;5.97;;
21107;SDS011;10712;52.944;9.098;2023-10-19T13:19:20;6.57;;;5.95;;
21107;SDS011;10712;52.944;9.098;2023-10-19T13:21:50;15.25;;;13.23;;
21107;SDS011;10712;52.944;9.098;2023-10-19T13:24:17;11.18;;;9.43;;
21107;SDS011;10712;52.944;9.098;2023-10-19T13:26:47;7.18;;;6.45;;
21107;SDS011;10712;52.944;9.098;2023-10-19T13:29:14;7.35;;;6.65;;
21107;SDS011;10712;52.944;9.098;2023-10-19T13:31:42;7.78;;;6.75;;
21107;SDS011;10712;52.944;9.098;2023-10-19T13:34:14;7.75;;;5.72;;
21107;SDS011;10712;52.944;9.098;2023-10-19T13:36:41;7.13;;;6.43;;
21107;SDS011;10712;52.944;9.098;2023-10-19T13:39:08;6.88;;;6.18;;
21107;SDS011;10712;52.944;9.098;2023-10-19T13:41:38;6.60;;;5.90;;
21107;SDS011;10712;52.944;9.098;2023-10-19T13:44:04;6.85;;;6.15;;
21107;SDS011;10712;52.944;9.098;2023-10-19T13:46:30;6.05;;;5.45;;
21107;SDS011;10712;52.944;9.098;2023-10-19T13:48:56;6.30;;;5.70;;
21107;SDS011;10712;52.944;9.098;2023-10-19T13:51:22;6.75;;;6.05;;
21107;SDS011;10712;52.944;9.098;2023-10-19T13:53:47;6.65;;;5.97;;
21107;SDS011;10712;52.944;9.098;2023-10-19T13:56:15;6.60;;;5.95;;
21107;SDS011;10712;52.944;9.098;2023-10-19T13:58:41;7.13;;;5.93;;
21107;SDS011;10712;52.944;9.098;2023-10-19T14:01:07;6.50;;;5.65;;
21107;SDS011;10712;52.944;9.098;2023-10-19T14:03:34;6.70;;;6.10;;
21107;SDS011;10712;52.944;9.098;2023-10-19T14:06:02;8.32;;;7.55;;
21107;SDS011;10712;52.944;9.098;2023-10-19T14:08:28;7.35;;;6.53;;
21107;SDS011;10712;52.944;9.098;2023-10-19T14:11:02;6.80;;;6.20;;
21107;SDS011;10712;52.944;9.098;2023-10-19T14:13:29;6.80;;;6.07;;
21107;SDS011;10712;52.944;9.098;2023-10-19T14:15:54;7.10;;;6.35;;
21107;SDS011;10712;52.944;9.098;2023-10-19T14:18:21;7.07;;;6.38;;
21107;SDS011;10712;52.944;9.098;2023-10-19T14:20:46;7.80;;;7.00;;
21107;SDS011;10712;52.944;9.098;2023-10-19T14:23:13;12.98;;;11.50;;
21107;SDS011;10712;52.944;9.098;2023-10-19T14:25:39;14.70;;;12.50;;
21107;SDS011;10712;52.944;9.098;2023-10-19T14:28:07;9.93;;;8.90;;
21107;SDS011;10712;52.944;9.098;2023-10-19T14:30:34;11.38;;;8.30;;
21107;SDS011;10712;52.944;9.098;2023-10-19T14:33:01;8.50;;;7.55;;
21107;SDS011;10712;52.944;9.098;2023-10-19T14:35:27;9.18;;;7.90;;
21107;SDS011;10712;52.944;9.098;2023-10-19T14:37:54;10.02;;;8.10;;
21107;SDS011;10712;52.944;9.098;2023-10-19T14:40:25;8.77;;;7.88;;
21107;SDS011;10712;52.944;9.098;2023-10-19T14:42:53;9.48;;;8.50;;
21107;SDS011;10712;52.944;9.098;2023-10-19T14:45:21;9.95;;;8.70;;
21107;SDS011;10712;52.944;9.098;2023-10-19T14:47:51;9.57;;;8.60;;
21107;SDS011;10712;52.944;9.098;2023-10-19T14:50:21;9.23;;;8.25;;
21107;SDS011;10712;52.944;9.098;2023-10-19T14:52:49;10.70;;;9.13;;
21107;SDS011;10712;52.944;9.098;2023-10-19T14:55:17;11.10;;;9.55;;
21107;SDS011;10712;52.944;9.098;2023-10-19T14:57:44;10.45;;;8.98;;
21107;SDS011;10712;52.944;9.098;2023-10-19T15:00:14;10.30;;;9.13;;
21107;SDS011;10712;52.944;9.098;2023-10-19T15:02:52;10.40;;;8.63;;
21107;SDS011;10712;52.944;9.098;2023-10-19T15:05:26;9.30;;;8.40;;
21107;SDS011;10712;52.944;9.098;2023-10-19T15:07:54;9.85;;;8.75;;